createdAt,value
2019-02-27T00:01:56.724Z,51.30
2019-02-27T00:04:37.525Z,51.20
2019-02-27T00:07:20.832Z,50.70
2019-02-27T00:10:00.902Z,51.50
2019-02-27T00:12:41.385Z,51.40
2019-02-27T00:15:22.559Z,51.30
2019-02-27T00:18:03.328Z,51.40
2019-02-27T00:20:44.055Z,51.80
2019-02-27T00:23:25.239Z,51.90
2019-02-27T00:28:50.146Z,51.80
2019-02-27T00:31:31.303Z,51.60
2019-02-27T00:34:12.212Z,51.50
2019-02-27T00:36:53.040Z,51.50
2019-02-27T00:39:33.804Z,51.10
2019-02-27T00:42:19.494Z,51.80
2019-02-27T00:44:57.672Z,51.80
2019-02-27T00:47:38.611Z,52.10
2019-02-27T00:50:19.936Z,52.40
2019-02-27T00:53:00.674Z,51.30
2019-02-27T00:55:41.426Z,52.10
2019-02-27T00:58:11.595Z,51.80
2019-02-27T01:00:59.739Z,52.10
2019-02-27T01:03:40.834Z,52.10
2019-02-27T01:06:12.226Z,52.30
2019-02-27T01:11:46.208Z,52.10
2019-02-27T01:14:26.810Z,52.40
2019-02-27T01:17:07.283Z,52.30
2019-02-27T01:19:50.628Z,52.60
2019-02-27T01:22:20.798Z,51.80
2019-02-27T01:25:09.379Z,52.80
2019-02-27T01:27:50.491Z,52.50
2019-02-27T01:30:31.356Z,52.50
2019-02-27T01:33:12.294Z,52.20
2019-02-27T01:35:52.914Z,52.10
2019-02-27T01:38:37.655Z,52.30
2019-02-27T01:41:15.793Z,52.20
2019-02-27T01:43:56.543Z,52.30
2019-02-27T01:46:37.412Z,51.60
2019-02-27T01:49:18.014Z,52.70
2019-02-27T01:51:59.140Z,52.80
2019-02-27T01:54:41.599Z,52.50
2019-02-27T01:57:22.471Z,52.50
2019-02-27T02:00:03.405Z,52.80
2019-02-27T02:02:44.374Z,52.60
2019-02-27T02:05:27.102Z,53.00
2019-02-27T02:08:13.496Z,53.20
2019-02-27T02:10:50.831Z,53.40
2019-02-27T02:13:31.463Z,53.20
2019-02-27T02:16:12.755Z,53.30
2019-02-27T02:18:53.292Z,53.30
2019-02-27T02:21:34.315Z,53.30
2019-02-27T02:24:15.819Z,53.10
2019-02-27T02:26:56.582Z,53.10
2019-02-27T02:29:37.459Z,53.30
2019-02-27T02:32:18.154Z,53.20
2019-02-27T02:34:58.844Z,53.10
2019-02-27T02:37:39.659Z,53.10
2019-02-27T02:40:20.231Z,53.30
2019-02-27T02:43:03.165Z,53.50
2019-02-27T02:45:43.834Z,53.30
2019-02-27T02:48:27.902Z,53.50
2019-02-27T02:51:07.479Z,53.50
2019-02-27T02:53:48.934Z,53.30
2019-02-27T02:56:30.045Z,53.20
2019-02-27T02:59:10.993Z,53.20
2019-02-27T03:01:51.919Z,53.80
2019-02-27T03:04:32.983Z,52.90
2019-02-27T03:07:13.760Z,53.90
2019-02-27T03:09:54.718Z,53.90
2019-02-27T03:12:35.739Z,53.40
2019-02-27T03:15:16.960Z,53.70
2019-02-27T03:17:57.932Z,53.30
2019-02-27T03:20:38.784Z,53.70
2019-02-27T03:23:19.437Z,53.80
2019-02-27T03:26:00.449Z,53.60
2019-02-27T03:28:41.803Z,52.80
2019-02-27T03:31:23.132Z,54.00
2019-02-27T03:34:08.143Z,53.90
2019-02-27T03:36:46.707Z,53.80
2019-02-27T03:39:27.575Z,53.80
2019-02-27T03:42:08.482Z,53.60
2019-02-27T03:44:49.139Z,53.60
2019-02-27T03:47:30.203Z,53.60
2019-02-27T03:50:14.641Z,53.80
2019-02-27T03:52:53.323Z,53.60
2019-02-27T03:55:34.740Z,53.70
2019-02-27T03:58:15.886Z,53.70
2019-02-27T04:00:56.539Z,53.30
2019-02-27T04:03:37.442Z,53.70
2019-02-27T04:06:21.339Z,53.70
2019-02-27T04:09:00.786Z,53.40
2019-02-27T04:11:42.829Z,53.60
2019-02-27T04:17:32.741Z,52.10
2019-02-27T04:20:15.516Z,54.10
2019-02-27T04:22:55.360Z,54.00
2019-02-27T04:25:36.051Z,53.20
2019-02-27T04:28:17.171Z,53.10
2019-02-27T04:30:57.949Z,53.50
2019-02-27T04:33:38.775Z,54.40
2019-02-27T04:36:19.764Z,54.30
2019-02-27T04:39:02.431Z,54.20
2019-02-27T04:41:43.336Z,54.40
2019-02-27T04:44:23.753Z,54.20
2019-02-27T04:47:04.338Z,54.00
2019-02-27T04:49:45.041Z,54.00
2019-02-27T04:52:26.134Z,54.30
2019-02-27T04:55:06.857Z,54.10
2019-02-27T04:57:47.799Z,54.50
2019-02-27T05:00:28.848Z,54.20
2019-02-27T05:03:09.798Z,54.70
2019-02-27T05:05:50.998Z,54.30
2019-02-27T05:08:31.612Z,54.40
2019-02-27T05:11:14.330Z,54.10
2019-02-27T05:16:46.976Z,54.30
2019-02-27T05:19:27.040Z,54.50
2019-02-27T05:22:07.977Z,54.50
2019-02-27T05:24:48.505Z,54.10
2019-02-27T05:27:29.593Z,54.10
2019-02-27T05:30:12.212Z,53.70
2019-02-27T05:32:54.051Z,54.00
2019-02-27T05:35:34.948Z,55.70
2019-02-27T05:38:15.610Z,55.00
2019-02-27T05:40:59.884Z,55.00
2019-02-27T05:43:39.139Z,54.60
2019-02-27T05:46:19.960Z,54.60
2019-02-27T05:49:00.674Z,54.40
2019-02-27T05:51:41.261Z,54.40
2019-02-27T05:54:22.444Z,54.40
2019-02-27T05:57:03.274Z,54.60
2019-02-27T05:59:44.129Z,54.50
2019-02-27T06:02:25.544Z,54.10
2019-02-27T06:05:06.832Z,54.70
2019-02-27T06:07:47.414Z,54.50
2019-02-27T06:10:27.945Z,54.50
2019-02-27T06:13:09.020Z,54.30
2019-02-27T06:15:49.642Z,54.40
2019-02-27T06:18:30.239Z,54.90
2019-02-27T06:21:13.341Z,54.80
2019-02-27T06:23:53.522Z,55.60
2019-02-27T06:26:34.303Z,54.80
2019-02-27T06:29:15.129Z,54.60
2019-02-27T06:31:55.908Z,54.40
2019-02-27T06:34:36.702Z,54.60
2019-02-27T06:37:17.459Z,53.60
2019-02-27T06:39:58.184Z,54.50
2019-02-27T06:42:38.912Z,54.50
2019-02-27T06:45:19.732Z,54.60
2019-02-27T06:48:00.502Z,54.10
2019-02-27T06:50:41.316Z,54.30
2019-02-27T06:53:22.023Z,54.30
2019-02-27T06:56:03.968Z,54.20
2019-02-27T06:58:44.715Z,53.20
2019-02-27T07:01:25.294Z,54.20
2019-02-27T07:04:08.077Z,53.80
2019-02-27T07:06:49.091Z,53.60
2019-02-27T07:09:29.883Z,53.60
2019-02-27T07:12:10.576Z,53.50
2019-02-27T07:14:51.193Z,53.30
2019-02-27T07:17:32.493Z,53.00
2019-02-27T07:20:12.918Z,52.60
2019-02-27T07:22:53.970Z,52.20
2019-02-27T07:25:35.029Z,51.60
2019-02-27T07:28:15.668Z,50.70
2019-02-27T07:30:56.338Z,50.00
2019-02-27T07:33:37.967Z,50.30
2019-02-27T07:36:19.831Z,50.10
2019-02-27T07:39:00.853Z,49.60
2019-02-27T07:41:41.271Z,49.40
2019-02-27T07:44:22.092Z,48.60
2019-02-27T07:47:03.320Z,48.60
2019-02-27T07:49:43.978Z,48.60
2019-02-27T07:52:24.587Z,47.60
2019-02-27T07:55:18.567Z,47.00
2019-02-27T07:57:48.026Z,45.10
2019-02-27T08:00:28.675Z,44.50
2019-02-27T08:03:12.876Z,43.70
2019-02-27T08:05:52.323Z,44.30
2019-02-27T08:08:33.261Z,42.50
2019-02-27T08:11:14.271Z,44.60
2019-02-27T08:13:54.962Z,44.50
2019-02-27T08:16:37.020Z,44.10
2019-02-27T08:19:17.794Z,42.60
2019-02-27T08:21:58.661Z,42.00
2019-02-27T08:24:39.419Z,41.50
2019-02-27T08:27:19.939Z,39.40
2019-02-27T08:30:00.861Z,41.60
2019-02-27T08:32:42.286Z,41.00
2019-02-27T08:35:23.103Z,41.70
2019-02-27T08:38:03.847Z,41.00
2019-02-27T08:40:44.617Z,40.50
2019-02-27T08:43:25.857Z,41.90
2019-02-27T08:46:06.692Z,40.30
2019-02-27T08:48:49.928Z,41.20
2019-02-27T08:51:30.392Z,40.20
2019-02-27T08:54:11.283Z,40.80
2019-02-27T08:56:52.167Z,40.90
2019-02-27T08:59:33.098Z,41.80
2019-02-27T09:02:13.869Z,41.20
2019-02-27T09:04:54.780Z,40.00
2019-02-27T09:07:36.506Z,40.50
2019-02-27T09:10:18.295Z,39.40
2019-02-27T09:13:05.397Z,40.50
2019-02-27T09:15:41.762Z,39.40
2019-02-27T09:18:22.992Z,38.10
2019-02-27T09:21:03.962Z,37.40
2019-02-27T09:23:44.804Z,35.40
2019-02-27T09:26:25.622Z,34.70
2019-02-27T09:29:06.359Z,34.00
2019-02-27T09:31:50.820Z,33.80
2019-02-27T09:34:29.980Z,35.20
2019-02-27T09:37:10.912Z,33.80
2019-02-27T09:39:51.708Z,34.30
2019-02-27T09:42:32.772Z,34.20
2019-02-27T09:45:13.752Z,32.80
2019-02-27T09:47:54.435Z,32.10
2019-02-27T09:50:35.036Z,34.10
2019-02-27T09:53:15.882Z,35.20
2019-02-27T09:55:56.646Z,35.20
2019-02-27T09:58:37.770Z,35.00
2019-02-27T10:01:19.036Z,35.70
2019-02-27T10:03:59.848Z,33.90
2019-02-27T10:06:42.843Z,35.60
2019-02-27T10:09:23.343Z,35.90
2019-02-27T10:14:28.624Z,35.60
2019-02-27T10:17:09.875Z,33.80
2019-02-27T10:19:51.152Z,35.00
2019-02-27T10:22:31.926Z,35.90
2019-02-27T10:25:13.083Z,36.40
2019-02-27T10:27:53.951Z,35.00
2019-02-27T10:30:34.688Z,36.00
2019-02-27T10:33:15.138Z,35.30
2019-02-27T10:35:55.899Z,34.50
2019-02-27T10:38:40.299Z,35.00
2019-02-27T10:41:18.665Z,33.60
2019-02-27T10:43:59.003Z,32.70
2019-02-27T10:46:39.895Z,32.80
2019-02-27T10:49:21.811Z,33.90
2019-02-27T10:52:03.362Z,34.20
2019-02-27T10:54:44.543Z,34.50
2019-02-27T10:57:25.428Z,33.30
2019-02-27T11:00:06.620Z,33.70
2019-02-27T11:02:47.921Z,33.20
2019-02-27T11:05:29.000Z,29.80
2019-02-27T11:08:09.869Z,33.60
2019-02-27T11:10:50.643Z,34.00
2019-02-27T11:13:30.295Z,31.40
2019-02-27T11:16:09.902Z,31.90
2019-02-27T11:18:51.216Z,33.30
2019-02-27T11:21:32.008Z,32.80
2019-02-27T11:24:14.551Z,31.30
2019-02-27T11:26:56.936Z,30.40
2019-02-27T11:29:38.027Z,30.70
2019-02-27T11:32:22.986Z,32.30
2019-02-27T11:35:01.845Z,32.80
2019-02-27T11:37:44.361Z,30.80
2019-02-27T11:40:25.444Z,30.50
2019-02-27T11:43:06.938Z,31.80
2019-02-27T11:45:47.991Z,31.90
2019-02-27T11:48:29.097Z,30.30
2019-02-27T11:51:10.070Z,31.70
2019-02-27T11:53:50.827Z,31.80
2019-02-27T11:56:31.903Z,29.60
2019-02-27T11:59:13.045Z,31.20
2019-02-27T12:01:56.171Z,30.70
2019-02-27T12:04:37.565Z,31.10
2019-02-27T12:07:18.539Z,29.30
2019-02-27T12:09:59.601Z,30.50
2019-02-27T12:12:40.278Z,30.70
2019-02-27T12:15:21.323Z,30.10
2019-02-27T12:18:02.143Z,30.00
2019-02-27T12:20:42.798Z,30.10
2019-02-27T12:23:11.950Z,30.50
2019-02-27T12:26:02.497Z,29.70
2019-02-27T12:28:30.907Z,30.00
2019-02-27T12:31:19.116Z,30.10
2019-02-27T12:34:02.335Z,30.00
2019-02-27T12:36:42.549Z,29.30
2019-02-27T12:39:23.306Z,29.80
2019-02-27T12:42:04.170Z,29.80
2019-02-27T12:44:46.377Z,29.90
2019-02-27T12:47:26.984Z,29.20
2019-02-27T12:50:06.579Z,29.20
2019-02-27T12:52:48.220Z,29.40
2019-02-27T12:55:29.139Z,29.30
2019-02-27T12:58:09.790Z,28.50
2019-02-27T13:00:50.941Z,29.30
2019-02-27T13:03:31.535Z,28.70
2019-02-27T13:06:12.424Z,27.60
2019-02-27T13:08:53.465Z,29.30
2019-02-27T13:11:34.670Z,29.30
2019-02-27T13:14:16.095Z,29.90
2019-02-27T13:16:57.248Z,29.90
2019-02-27T13:19:39.026Z,30.00
2019-02-27T13:22:19.891Z,29.80
2019-02-27T13:25:01.112Z,29.80
2019-02-27T13:27:43.290Z,29.90
2019-02-27T13:30:22.766Z,29.70
2019-02-27T13:33:03.492Z,29.70
2019-02-27T13:35:44.377Z,29.60
2019-02-27T13:38:25.011Z,29.60
2019-02-27T13:41:07.665Z,29.60
2019-02-27T13:43:48.558Z,29.50
2019-02-27T13:46:29.154Z,29.20
2019-02-27T13:49:11.354Z,29.50
2019-02-27T13:51:53.075Z,28.60
2019-02-27T13:54:37.936Z,28.80
2019-02-27T13:57:16.915Z,28.60
2019-02-27T13:59:57.759Z,28.70
2019-02-27T14:02:39.459Z,28.90
2019-02-27T14:05:20.918Z,28.90
2019-02-27T14:07:50.003Z,28.40
2019-02-27T14:10:38.174Z,29.10
2019-02-27T14:13:26.322Z,29.00
2019-02-27T14:16:07.230Z,29.20
2019-02-27T14:18:49.974Z,29.20
2019-02-27T14:21:35.245Z,29.50
2019-02-27T14:24:14.117Z,29.30
2019-02-27T14:26:54.882Z,29.60
2019-02-27T14:29:35.652Z,29.80
2019-02-27T14:32:16.560Z,29.80
2019-02-27T14:34:58.008Z,29.80
2019-02-27T14:37:40.156Z,29.50
2019-02-27T14:40:20.767Z,29.70
2019-02-27T14:43:01.903Z,29.80
2019-02-27T14:45:42.524Z,30.00
2019-02-27T14:48:23.180Z,29.50
2019-02-27T14:51:07.314Z,29.60
2019-02-27T14:53:47.046Z,29.90
2019-02-27T14:56:28.288Z,29.60
2019-02-27T14:59:08.995Z,28.90
2019-02-27T15:01:50.131Z,29.70
2019-02-27T15:04:32.305Z,29.70
2019-02-27T15:07:13.882Z,29.60
2019-02-27T15:09:54.574Z,29.50
2019-02-27T15:12:35.896Z,29.90
2019-02-27T15:15:16.918Z,29.80
2019-02-27T15:17:57.616Z,30.00
2019-02-27T15:20:40.994Z,29.60
2019-02-27T15:23:24.508Z,29.70
2019-02-27T15:26:03.924Z,29.70
2019-02-27T15:28:44.828Z,29.80
2019-02-27T15:31:25.588Z,29.60
2019-02-27T15:34:06.357Z,29.90
2019-02-27T15:36:47.308Z,29.90
2019-02-27T15:42:12.508Z,29.70
2019-02-27T15:44:53.231Z,29.80
2019-02-27T15:47:34.023Z,29.70
2019-02-27T15:50:15.345Z,30.00
2019-02-27T15:52:56.122Z,30.00
2019-02-27T15:55:37.895Z,29.70
2019-02-27T15:58:19.494Z,30.10
2019-02-27T16:01:00.026Z,30.00
2019-02-27T16:03:42.104Z,30.10
2019-02-27T16:06:23.327Z,30.10
2019-02-27T16:09:03.942Z,30.50
2019-02-27T16:11:44.794Z,30.60
2019-02-27T16:14:25.666Z,31.60
2019-02-27T16:17:06.605Z,31.10
2019-02-27T16:19:47.184Z,31.30
2019-02-27T16:22:28.528Z,30.60
2019-02-27T16:25:10.586Z,31.50
2019-02-27T16:27:51.290Z,31.40
2019-02-27T16:30:32.993Z,31.90
2019-02-27T16:33:13.976Z,32.20
2019-02-27T16:35:54.658Z,32.10
2019-02-27T16:38:35.677Z,32.30
2019-02-27T16:41:16.463Z,32.80
2019-02-27T16:43:56.929Z,32.50
2019-02-27T16:46:43.250Z,33.20
2019-02-27T16:49:20.227Z,33.50
2019-02-27T16:52:13.773Z,33.60
2019-02-27T16:54:42.963Z,34.00
2019-02-27T16:57:12.155Z,34.30
2019-02-27T16:59:42.246Z,34.30
2019-02-27T17:02:12.410Z,34.60
2019-02-27T17:04:42.790Z,35.50
2019-02-27T17:07:11.991Z,35.10
2019-02-27T17:09:43.802Z,35.40
2019-02-27T17:12:11.951Z,35.60
2019-02-27T17:14:41.311Z,35.90
2019-02-27T17:17:11.455Z,36.20
2019-02-27T17:19:40.540Z,36.30
2019-02-27T17:22:10.980Z,36.50
2019-02-27T17:24:40.279Z,36.40
2019-02-27T17:27:12.574Z,36.40
2019-02-27T17:29:41.220Z,37.10
2019-02-27T17:32:10.335Z,36.80
2019-02-27T17:34:39.407Z,37.20
2019-02-27T17:37:08.516Z,38.00
2019-02-27T17:39:37.608Z,37.50
2019-02-27T17:42:06.705Z,37.60
2019-02-27T17:44:37.817Z,37.70
2019-02-27T17:47:08.176Z,37.80
2019-02-27T17:49:37.471Z,38.00
2019-02-27T17:52:11.367Z,38.20
2019-02-27T17:54:37.414Z,38.30
2019-02-27T17:57:06.521Z,38.50
2019-02-27T17:59:35.606Z,38.70
2019-02-27T18:02:04.896Z,38.80
2019-02-27T18:04:34.000Z,39.10
2019-02-27T18:07:06.173Z,39.50
2019-02-27T18:09:34.957Z,39.70
2019-02-27T18:12:04.050Z,40.10
2019-02-27T18:14:34.179Z,40.00
2019-02-27T18:17:03.256Z,40.10
2019-02-27T18:19:33.405Z,40.40
2019-02-27T18:22:02.471Z,40.30
2019-02-27T18:24:34.198Z,39.90
2019-02-27T18:27:02.524Z,40.70
2019-02-27T18:29:31.756Z,41.20
2019-02-27T18:32:06.158Z,41.20
2019-02-27T18:34:31.789Z,41.50
2019-02-27T18:37:00.984Z,41.80
2019-02-27T18:39:30.170Z,41.70
2019-02-27T18:41:59.384Z,41.70
2019-02-27T18:44:28.580Z,42.10
2019-02-27T18:46:59.412Z,43.10
2019-02-27T18:49:28.589Z,43.30
2019-02-27T18:51:57.685Z,43.80
2019-02-27T18:54:26.782Z,44.00
2019-02-27T18:56:55.878Z,43.90
2019-02-27T18:59:29.400Z,44.40
2019-02-27T19:01:55.891Z,44.70
2019-02-27T19:04:25.067Z,44.30
2019-02-27T19:06:54.212Z,44.30
2019-02-27T19:09:23.314Z,44.70
2019-02-27T19:11:52.425Z,44.60
2019-02-27T19:14:21.615Z,45.00
2019-02-27T19:16:52.132Z,45.00
2019-02-27T19:19:21.728Z,45.20
2019-02-27T19:21:50.845Z,44.90
2019-02-27T19:24:20.060Z,44.90
2019-02-27T19:26:49.529Z,45.20
2019-02-27T19:29:18.628Z,44.90
2019-02-27T19:31:48.342Z,45.30
2019-02-27T19:34:18.588Z,45.40
2019-02-27T19:36:47.749Z,45.70
2019-02-27T19:39:18.299Z,45.70
2019-02-27T19:41:47.788Z,45.70
2019-02-27T19:44:16.873Z,45.80
2019-02-27T19:46:47.647Z,46.30
2019-02-27T19:49:17.848Z,46.20
2019-02-27T19:51:47.025Z,46.20
2019-02-27T19:54:18.537Z,46.70
2019-02-27T19:56:47.010Z,46.60
2019-02-27T19:59:16.299Z,46.50
2019-02-27T20:01:49.063Z,47.20
2019-02-27T20:04:16.349Z,46.70
2019-02-27T20:06:45.614Z,47.00
2019-02-27T20:09:18.992Z,46.90
2019-02-27T20:11:45.916Z,47.30
2019-02-27T20:14:15.103Z,47.20
2019-02-27T20:16:45.626Z,47.70
2019-02-27T20:19:22.194Z,47.60
2019-02-27T20:21:45.793Z,47.60
2019-02-27T20:24:15.215Z,47.40
2019-02-27T20:26:44.906Z,47.50
2019-02-27T20:29:14.120Z,47.70
2019-02-27T20:31:43.236Z,47.70
2019-02-27T20:34:12.583Z,48.30
2019-02-27T20:36:41.723Z,48.60
2019-02-27T20:39:11.043Z,48.80
2019-02-27T20:41:43.197Z,48.60
2019-02-27T20:44:11.506Z,48.20
2019-02-27T20:46:40.683Z,48.70
2019-02-27T20:49:10.451Z,48.60
2019-02-27T20:51:40.725Z,49.00
2019-02-27T20:54:09.807Z,48.80
2019-02-27T20:56:38.806Z,48.80
2019-02-27T20:59:07.920Z,49.10
2019-02-27T21:01:38.126Z,48.60
2019-02-27T21:04:07.490Z,48.80
2019-02-27T21:06:36.600Z,48.90
2019-02-27T21:09:11.893Z,48.80
2019-02-27T21:11:39.096Z,48.80
2019-02-27T21:14:08.427Z,48.80
2019-02-27T21:16:40.178Z,48.70
2019-02-27T21:19:11.095Z,49.20
2019-02-27T21:21:40.185Z,49.30
2019-02-27T21:24:09.543Z,49.30
2019-02-27T21:26:38.737Z,49.20
2019-02-27T21:29:08.643Z,49.60
2019-02-27T21:31:39.855Z,49.80
2019-02-27T21:34:08.969Z,49.70
2019-02-27T21:36:39.134Z,49.70
2019-02-27T21:39:08.388Z,49.80
2019-02-27T21:41:37.473Z,50.00
2019-02-27T21:44:06.551Z,49.70
2019-02-27T21:46:35.808Z,49.60
2019-02-27T21:49:05.011Z,49.50
2019-02-27T21:51:34.144Z,49.60
2019-02-27T21:54:04.013Z,50.10
2019-02-27T21:56:34.775Z,50.20
2019-02-27T21:59:04.742Z,50.20
2019-02-27T22:01:35.026Z,49.90
2019-02-27T22:04:04.155Z,49.90
2019-02-27T22:06:35.503Z,50.00
2019-02-27T22:09:05.311Z,50.30
2019-02-27T22:11:34.435Z,50.20
2019-02-27T22:14:03.629Z,51.30
2019-02-27T22:16:32.795Z,50.60
2019-02-27T22:19:02.925Z,50.70
2019-02-27T22:21:34.087Z,50.40
2019-02-27T22:24:03.872Z,50.30
2019-02-27T22:26:34.130Z,50.90
2019-02-27T22:29:03.931Z,50.80
2019-02-27T22:31:32.999Z,50.60
2019-02-27T22:34:04.230Z,50.30
2019-02-27T22:36:33.339Z,50.30
2019-02-27T22:39:02.450Z,50.50
2019-02-27T22:41:31.565Z,51.10
2019-02-27T22:44:00.824Z,50.80
2019-02-27T22:46:30.961Z,51.00
2019-02-27T22:49:00.903Z,51.10
2019-02-27T22:51:33.332Z,51.50
2019-02-27T22:54:02.889Z,51.00
2019-02-27T22:56:32.050Z,51.30
2019-02-27T22:59:02.958Z,51.40
2019-02-27T23:01:50.490Z,51.20
2019-02-27T23:04:18.382Z,51.10
2019-02-27T23:06:47.953Z,52.10
2019-02-27T23:09:20.937Z,51.40
2019-02-27T23:11:50.139Z,51.20
2019-02-27T23:14:19.805Z,51.10
2019-02-27T23:16:49.047Z,51.60
2019-02-27T23:19:19.282Z,51.50
2019-02-27T23:21:50.435Z,51.60
2019-02-27T23:24:20.585Z,52.00
2019-02-27T23:26:54.325Z,52.20
2019-02-27T23:29:20.610Z,51.90
2019-02-27T23:31:50.755Z,52.00
2019-02-27T23:34:19.928Z,51.70
2019-02-27T23:36:49.131Z,51.40
2019-02-27T23:39:18.225Z,51.70
2019-02-27T23:41:47.316Z,51.80
2019-02-27T23:44:17.449Z,52.00
2019-02-27T23:46:51.313Z,52.30
2019-02-27T23:49:19.641Z,52.20
2019-02-27T23:51:48.844Z,52.40
2019-02-27T23:54:18.026Z,52.50
2019-02-27T23:56:47.148Z,52.60
2019-02-27T23:59:16.342Z,52.40
